sensor_id;sensor_type;location;lat;lon;timestamp;pressure;altitude;pressure_sealevel;temperature;humidity
73681;BME280;61979;53.536;8.082;2022-11-15T00:09:14;101053.69;;;8.56;88.22
73681;BME280;61979;53.536;8.082;2022-11-15T00:19:14;101052.88;;;8.38;88.89
73681;BME280;61979;53.536;8.082;2022-11-15T00:29:14;101059.66;;;8.30;88.84
73681;BME280;61979;53.536;8.082;2022-11-15T00:39:14;101056.22;;;8.13;89.77
73681;BME280;61979;53.536;8.082;2022-11-15T00:49:16;101049.47;;;8.03;90.40
73681;BME280;61979;53.536;8.082;2022-11-15T00:59:16;101041.81;;;7.86;90.52
73681;BME280;61979;53.536;8.082;2022-11-15T01:09:16;101048.59;;;7.96;89.42
73681;BME280;61979;53.536;8.082;2022-11-15T01:19:16;101040.97;;;7.81;90.03
73681;BME280;61979;53.536;8.082;2022-11-15T01:29:17;101037.53;;;7.70;90.61
73681;BME280;61979;53.536;8.082;2022-11-15T01:39:17;101018.03;;;7.45;92.73
73681;BME280;61979;53.536;8.082;2022-11-15T01:49:18;101009.63;;;7.58;91.62
73681;BME280;61979;53.536;8.082;2022-11-15T01:59:19;100992.66;;;7.33;92.84
73681;BME280;61979;53.536;8.082;2022-11-15T02:09:19;100984.25;;;7.42;92.26
73681;BME280;61979;53.536;8.082;2022-11-15T02:19:29;100988.44;;;7.29;93.02
73681;BME280;61979;53.536;8.082;2022-11-15T02:49:48;100967.28;;;7.36;92.15
73681;BME280;61979;53.536;8.082;2022-11-15T03:09:57;100954.63;;;7.30;93.35
73681;BME280;61979;53.536;8.082;2022-11-15T03:19:59;100944.50;;;7.35;93.94
73681;BME280;61979;53.536;8.082;2022-11-15T03:30:03;100954.69;;;7.63;93.96
73681;BME280;61979;53.536;8.082;2022-11-15T03:40:04;100967.38;;;7.87;93.07
73681;BME280;61979;53.536;8.082;2022-11-15T03:50:10;100959.78;;;8.04;92.60
73681;BME280;61979;53.536;8.082;2022-11-15T04:00:12;100966.53;;;8.17;92.16
73681;BME280;61979;53.536;8.082;2022-11-15T04:10:12;100952.16;;;8.14;92.41
73681;BME280;61979;53.536;8.082;2022-11-15T04:20:14;100943.69;;;8.33;93.60
73681;BME280;61979;53.536;8.082;2022-11-15T04:30:33;100956.38;;;8.35;93.58
73681;BME280;61979;53.536;8.082;2022-11-15T04:40:34;100953.81;;;8.39;95.33
73681;BME280;61979;53.536;8.082;2022-11-15T04:50:34;100958.03;;;8.46;96.33
73681;BME280;61979;53.536;8.082;2022-11-15T05:00:34;100936.00;;;8.63;96.03
73681;BME280;61979;53.536;8.082;2022-11-15T05:10:35;100927.50;;;8.70;95.21
73681;BME280;61979;53.536;8.082;2022-11-15T05:20:35;100927.47;;;8.79;94.91
73681;BME280;61979;53.536;8.082;2022-11-15T05:30:35;100923.16;;;8.99;94.90
73681;BME280;61979;53.536;8.082;2022-11-15T05:40:35;100921.38;;;9.16;94.12
73681;BME280;61979;53.536;8.082;2022-11-15T05:50:36;100927.22;;;9.30;94.05
73681;BME280;61979;53.536;8.082;2022-11-15T06:00:38;100921.22;;;9.43;93.35
73681;BME280;61979;53.536;8.082;2022-11-15T06:10:39;100935.59;;;9.50;92.66
73681;BME280;61979;53.536;8.082;2022-11-15T06:20:39;100924.47;;;9.57;93.39
73681;BME280;61979;53.536;8.082;2022-11-15T06:30:39;100932.06;;;9.64;92.76
73681;BME280;61979;53.536;8.082;2022-11-15T06:40:39;100944.75;;;9.72;92.36
73681;BME280;61979;53.536;8.082;2022-11-15T06:50:40;100943.00;;;9.74;92.87
73681;BME280;61979;53.536;8.082;2022-11-15T07:00:40;100954.78;;;9.90;92.25
73681;BME280;61979;53.536;8.082;2022-11-15T07:10:40;100968.28;;;9.98;92.09
73681;BME280;61979;53.536;8.082;2022-11-15T07:20:40;100983.53;;;10.10;91.13
73681;BME280;61979;53.536;8.082;2022-11-15T07:30:41;100972.34;;;10.24;91.21
73681;BME280;61979;53.536;8.082;2022-11-15T07:40:41;100957.03;;;10.27;91.08
73681;BME280;61979;53.536;8.082;2022-11-15T07:50:41;100967.75;;;10.61;90.22
73681;BME280;61979;53.536;8.082;2022-11-15T08:00:44;100966.13;;;10.54;90.35
73681;BME280;61979;53.536;8.082;2022-11-15T08:10:45;100959.94;;;10.74;89.34
73681;BME280;61979;53.536;8.082;2022-11-15T08:20:45;100955.78;;;10.66;90.12
73681;BME280;61979;53.536;8.082;2022-11-15T08:30:45;100959.75;;;10.89;89.69
73681;BME280;61979;53.536;8.082;2022-11-15T08:40:45;100954.56;;;10.97;89.59
73681;BME280;61979;53.536;8.082;2022-11-15T08:50:45;100960.31;;;11.11;89.91
73681;BME280;61979;53.536;8.082;2022-11-15T09:00:46;100964.25;;;11.37;90.11
73681;BME280;61979;53.536;8.082;2022-11-15T09:10:46;100969.97;;;11.53;88.92
73681;BME280;61979;53.536;8.082;2022-11-15T09:20:46;100963.81;;;11.69;89.86
73681;BME280;61979;53.536;8.082;2022-11-15T09:30:46;100954.53;;;11.62;90.52
73681;BME280;61979;53.536;8.082;2022-11-15T09:40:49;100956.72;;;11.87;90.20
73681;BME280;61979;53.536;8.082;2022-11-15T09:50:51;100956.66;;;11.90;89.74
73681;BME280;61979;53.536;8.082;2022-11-15T10:00:53;100949.72;;;11.97;90.59
73681;BME280;61979;53.536;8.082;2022-11-15T10:10:58;100944.88;;;12.32;88.90
73681;BME280;61979;53.536;8.082;2022-11-15T10:21:02;100931.09;;;12.39;89.22
73681;BME280;61979;53.536;8.082;2022-11-15T10:31:25;100918.84;;;12.56;88.50
73681;BME280;61979;53.536;8.082;2022-11-15T10:51:27;100883.69;;;12.67;89.12
73681;BME280;61979;53.536;8.082;2022-11-15T11:01:28;100870.66;;;12.78;88.88
73681;BME280;61979;53.536;8.082;2022-11-15T11:11:45;100873.31;;;13.13;87.69
73681;BME280;61979;53.536;8.082;2022-11-15T11:21:56;100856.22;;;13.15;87.57
73681;BME280;61979;53.536;8.082;2022-11-15T11:52:27;100832.47;;;13.45;87.00
73681;BME280;61979;53.536;8.082;2022-11-15T12:02:34;100835.25;;;13.70;86.45
73681;BME280;61979;53.536;8.082;2022-11-15T12:12:58;100824.19;;;13.69;85.71
73681;BME280;61979;53.536;8.082;2022-11-15T12:23:17;100809.50;;;14.06;84.83
73681;BME280;61979;53.536;8.082;2022-11-15T12:43:38;100798.47;;;14.64;81.94
73681;BME280;61979;53.536;8.082;2022-11-15T12:53:39;100787.75;;;14.51;81.82
73681;BME280;61979;53.536;8.082;2022-11-15T13:13:59;100767.50;;;14.42;82.47
73681;BME280;61979;53.536;8.082;2022-11-15T13:23:59;100780.91;;;14.79;81.21
73681;BME280;61979;53.536;8.082;2022-11-15T13:34:01;100771.50;;;14.78;81.22
73681;BME280;61979;53.536;8.082;2022-11-15T13:44:02;100768.03;;;14.81;80.80
73681;BME280;61979;53.536;8.082;2022-11-15T14:04:09;100747.25;;;14.33;81.77
73681;BME280;61979;53.536;8.082;2022-11-15T14:14:12;100737.75;;;14.37;81.57
73681;BME280;61979;53.536;8.082;2022-11-15T14:24:14;100731.31;;;13.93;83.18
73681;BME280;61979;53.536;8.082;2022-11-15T14:34:14;100737.00;;;13.72;83.37
73681;BME280;61979;53.536;8.082;2022-11-15T14:44:15;100736.09;;;13.41;83.49
73681;BME280;61979;53.536;8.082;2022-11-15T14:54:18;100721.34;;;13.51;80.90
73681;BME280;61979;53.536;8.082;2022-11-15T15:04:18;100717.47;;;13.36;79.84
73681;BME280;61979;53.536;8.082;2022-11-15T15:14:18;100705.56;;;13.35;79.83
73681;BME280;61979;53.536;8.082;2022-11-15T15:24:19;100704.97;;;13.24;78.92
73681;BME280;61979;53.536;8.082;2022-11-15T15:34:19;100686.50;;;12.78;80.03
73681;BME280;61979;53.536;8.082;2022-11-15T15:44:19;100676.25;;;12.78;79.39
73681;BME280;61979;53.536;8.082;2022-11-15T15:54:19;100662.78;;;12.36;81.71
73681;BME280;61979;53.536;8.082;2022-11-15T16:04:19;100660.06;;;12.07;82.76
73681;BME280;61979;53.536;8.082;2022-11-15T16:14:20;100656.56;;;12.09;83.86
73681;BME280;61979;53.536;8.082;2022-11-15T16:24:20;100650.75;;;12.03;82.55
73681;BME280;61979;53.536;8.082;2022-11-15T16:34:20;100630.78;;;11.82;83.09
73681;BME280;61979;53.536;8.082;2022-11-15T16:44:21;100635.03;;;11.81;82.78
73681;BME280;61979;53.536;8.082;2022-11-15T16:54:22;100621.53;;;11.76;82.91
73681;BME280;61979;53.536;8.082;2022-11-15T17:04:22;100622.56;;;11.68;85.14
73681;BME280;61979;53.536;8.082;2022-11-15T17:14:22;100620.69;;;11.76;85.79
73681;BME280;61979;53.536;8.082;2022-11-15T17:24:23;100617.19;;;11.80;86.46
73681;BME280;61979;53.536;8.082;2022-11-15T17:34:23;100605.28;;;11.79;86.75
73681;BME280;61979;53.536;8.082;2022-11-15T17:44:23;100588.28;;;11.79;86.12
73681;BME280;61979;53.536;8.082;2022-11-15T17:54:23;100587.19;;;11.89;86.20
73681;BME280;61979;53.536;8.082;2022-11-15T18:04:26;100586.53;;;11.80;86.04
73681;BME280;61979;53.536;8.082;2022-11-15T18:14:27;100590.72;;;11.85;85.63
73681;BME280;61979;53.536;8.082;2022-11-15T18:24:28;100578.63;;;11.92;85.99
73681;BME280;61979;53.536;8.082;2022-11-15T18:34:29;100565.06;;;11.90;85.87
73681;BME280;61979;53.536;8.082;2022-11-15T18:44:31;100540.25;;;11.95;85.87
73681;BME280;61979;53.536;8.082;2022-11-15T18:54:31;100540.03;;;12.04;85.76
73681;BME280;61979;53.536;8.082;2022-11-15T19:04:32;100539.13;;;12.06;85.72
73681;BME280;61979;53.536;8.082;2022-11-15T19:14:32;100529.56;;;12.14;85.37
73681;BME280;61979;53.536;8.082;2022-11-15T19:24:32;100532.13;;;12.14;85.27
73681;BME280;61979;53.536;8.082;2022-11-15T19:34:32;100530.31;;;12.19;85.37
73681;BME280;61979;53.536;8.082;2022-11-15T19:44:32;100513.13;;;12.26;85.01
73681;BME280;61979;53.536;8.082;2022-11-15T19:54:33;100515.53;;;12.32;84.81
73681;BME280;61979;53.536;8.082;2022-11-15T20:04:33;100507.03;;;12.30;85.30
73681;BME280;61979;53.536;8.082;2022-11-15T20:14:33;100507.00;;;12.31;84.88
73681;BME280;61979;53.536;8.082;2022-11-15T20:24:34;100488.31;;;12.29;84.85
73681;BME280;61979;53.536;8.082;2022-11-15T20:34:34;100476.91;;;12.42;84.45
73681;BME280;61979;53.536;8.082;2022-11-15T20:44:34;100466.00;;;12.36;84.84
73681;BME280;61979;53.536;8.082;2022-11-15T20:54:34;100467.69;;;12.37;84.55
73681;BME280;61979;53.536;8.082;2022-11-15T21:04:35;100464.41;;;12.32;84.72
73681;BME280;61979;53.536;8.082;2022-11-15T21:14:35;100454.25;;;12.29;84.46
73681;BME280;61979;53.536;8.082;2022-11-15T21:24:35;100434.13;;;12.17;84.97
73681;BME280;61979;53.536;8.082;2022-11-15T21:34:35;100430.84;;;12.12;84.67
73681;BME280;61979;53.536;8.082;2022-11-15T21:44:36;100425.03;;;12.07;85.67
73681;BME280;61979;53.536;8.082;2022-11-15T21:54:36;100412.03;;;12.16;85.28
73681;BME280;61979;53.536;8.082;2022-11-15T22:04:38;100408.03;;;12.06;85.24
73681;BME280;61979;53.536;8.082;2022-11-15T22:14:38;100398.50;;;12.11;84.96
73681;BME280;61979;53.536;8.082;2022-11-15T22:24:38;100377.25;;;12.10;85.17
73681;BME280;61979;53.536;8.082;2022-11-15T22:34:38;100380.00;;;12.03;84.97
73681;BME280;61979;53.536;8.082;2022-11-15T22:44:39;100377.38;;;12.06;85.23
73681;BME280;61979;53.536;8.082;2022-11-15T22:54:39;100376.50;;;12.07;85.09
73681;BME280;61979;53.536;8.082;2022-11-15T23:04:39;100369.00;;;11.99;85.28
73681;BME280;61979;53.536;8.082;2022-11-15T23:14:39;100378.22;;;12.05;85.03
73681;BME280;61979;53.536;8.082;2022-11-15T23:24:40;100366.50;;;11.98;85.01
73681;BME280;61979;53.536;8.082;2022-11-15T23:34:41;100361.22;;;12.04;84.60
73681;BME280;61979;53.536;8.082;2022-11-15T23:44:41;100349.31;;;12.04;84.32
73681;BME280;61979;53.536;8.082;2022-11-15T23:54:42;100340.63;;;12.10;84.20
